sensor_id;sensor_type;location;lat;lon;timestamp;pressure;altitude;pressure_sealevel;temperature;humidity
85166;BME280;75533;52.100;10.228;2024-03-23T00:53:25;99345.53;;;18.07;48.94
85166;BME280;75533;52.100;10.228;2024-03-23T00:55:50;99338.09;;;18.07;48.95
85166;BME280;75533;52.100;10.228;2024-03-23T00:58:16;99331.72;;;18.07;48.75
85166;BME280;75533;52.100;10.228;2024-03-23T01:00:41;99330.03;;;18.06;48.84
85166;BME280;75533;52.100;10.228;2024-03-23T01:03:06;99333.63;;;18.06;48.93
85166;BME280;75533;52.100;10.228;2024-03-23T01:05:32;99328.34;;;18.05;48.68
85166;BME280;75533;52.100;10.228;2024-03-23T01:07:57;99328.34;;;18.05;48.70
85166;BME280;75533;52.100;10.228;2024-03-23T01:10:22;99318.38;;;18.04;48.84
85166;BME280;75533;52.100;10.228;2024-03-23T01:12:47;99319.44;;;18.02;48.75
85166;BME280;75533;52.100;10.228;2024-03-23T01:15:13;99313.91;;;18.02;49.04
85166;BME280;75533;52.100;10.228;2024-03-23T01:17:38;99309.22;;;18.03;48.64
85166;BME280;75533;52.100;10.228;2024-03-23T01:20:04;99312.22;;;18.01;48.69
85166;BME280;75533;52.100;10.228;2024-03-23T01:22:30;99302.25;;;18.00;48.74
85166;BME280;75533;52.100;10.228;2024-03-23T01:24:55;99298.63;;;18.00;48.78
85166;BME280;75533;52.100;10.228;2024-03-23T01:27:20;99302.69;;;17.97;48.56
85166;BME280;75533;52.100;10.228;2024-03-23T01:29:45;99295.25;;;17.98;48.94
85166;BME280;75533;52.100;10.228;2024-03-23T01:32:11;99291.63;;;17.97;48.96
85166;BME280;75533;52.100;10.228;2024-03-23T01:34:36;99290.56;;;17.98;48.75
85166;BME280;75533;52.100;10.228;2024-03-23T01:37:02;99275.28;;;17.96;48.82
85166;BME280;75533;52.100;10.228;2024-03-23T01:39:27;99276.13;;;17.96;48.83
85166;BME280;75533;52.100;10.228;2024-03-23T01:41:52;99282.75;;;17.95;48.64
85166;BME280;75533;52.100;10.228;2024-03-23T01:44:18;99278.06;;;17.96;48.75
85166;BME280;75533;52.100;10.228;2024-03-23T01:46:43;99275.75;;;17.93;48.81
85166;BME280;75533;52.100;10.228;2024-03-23T01:49:09;99273.00;;;17.93;49.01
85166;BME280;75533;52.100;10.228;2024-03-23T01:51:36;99274.06;;;17.92;48.81
85166;BME280;75533;52.100;10.228;2024-03-23T01:54:02;99272.16;;;17.92;48.82
85166;BME280;75533;52.100;10.228;2024-03-23T01:56:37;99271.09;;;17.93;49.00
85166;BME280;75533;52.100;10.228;2024-03-23T01:59:03;99270.69;;;17.90;48.59
85166;BME280;75533;52.100;10.228;2024-03-23T02:01:29;99260.50;;;17.90;48.81
85166;BME280;75533;52.100;10.228;2024-03-23T02:03:55;99249.44;;;17.90;48.70
85166;BME280;75533;52.100;10.228;2024-03-23T02:06:21;99249.44;;;17.90;48.86
85166;BME280;75533;52.100;10.228;2024-03-23T02:08:47;99247.75;;;17.89;48.88
85166;BME280;75533;52.100;10.228;2024-03-23T02:11:13;99245.00;;;17.89;48.85
85166;BME280;75533;52.100;10.228;2024-03-23T02:13:38;99226.97;;;17.87;48.63
85166;BME280;75533;52.100;10.228;2024-03-23T02:16:05;99227.81;;;17.87;48.82
85166;BME280;75533;52.100;10.228;2024-03-23T02:18:30;99224.22;;;17.87;48.84
85166;BME280;75533;52.100;10.228;2024-03-23T02:20:56;99210.66;;;17.85;48.86
85166;BME280;75533;52.100;10.228;2024-03-23T02:23:21;99216.78;;;17.87;48.75
85166;BME280;75533;52.100;10.228;2024-03-23T02:25:46;99211.50;;;17.86;49.01
85166;BME280;75533;52.100;10.228;2024-03-23T02:28:12;99220.63;;;17.86;48.83
85166;BME280;75533;52.100;10.228;2024-03-23T02:30:38;99217.25;;;17.84;48.81
85166;BME280;75533;52.100;10.228;2024-03-23T02:33:04;99216.41;;;17.84;48.69
85166;BME280;75533;52.100;10.228;2024-03-23T02:35:29;99210.88;;;17.84;48.70
85166;BME280;75533;52.100;10.228;2024-03-23T02:37:55;99205.34;;;17.84;48.81
85166;BME280;75533;52.100;10.228;2024-03-23T02:40:23;99216.16;;;17.85;49.04
85166;BME280;75533;52.100;10.228;2024-03-23T02:42:48;99202.81;;;17.82;48.80
85166;BME280;75533;52.100;10.228;2024-03-23T02:45:14;99206.19;;;17.84;48.88
85166;BME280;75533;52.100;10.228;2024-03-23T02:47:39;99193.09;;;17.80;48.76
85166;BME280;75533;52.100;10.228;2024-03-23T02:50:05;99196.22;;;17.83;48.75
85166;BME280;75533;52.100;10.228;2024-03-23T02:52:30;99197.53;;;17.81;48.92
85166;BME280;75533;52.100;10.228;2024-03-23T02:54:56;99191.41;;;17.79;48.73
85166;BME280;75533;52.100;10.228;2024-03-23T02:57:21;99177.38;;;17.80;48.77
85166;BME280;75533;52.100;10.228;2024-03-23T02:59:47;99179.47;;;17.78;48.74
85166;BME280;75533;52.100;10.228;2024-03-23T03:02:13;99182.03;;;17.80;48.58
85166;BME280;75533;52.100;10.228;2024-03-23T03:04:38;99185.00;;;17.78;48.92
85166;BME280;75533;52.100;10.228;2024-03-23T03:07:03;99176.72;;;17.78;48.44
85166;BME280;75533;52.100;10.228;2024-03-23T03:09:29;99171.00;;;17.80;48.58
85166;BME280;75533;52.100;10.228;2024-03-23T03:11:54;99162.31;;;17.76;48.87
85166;BME280;75533;52.100;10.228;2024-03-23T03:14:20;99168.91;;;17.75;48.57
85166;BME280;75533;52.100;10.228;2024-03-23T03:16:45;99169.97;;;17.74;48.68
85166;BME280;75533;52.100;10.228;2024-03-23T03:19:10;99172.50;;;17.76;48.58
85166;BME280;75533;52.100;10.228;2024-03-23T03:21:36;99169.75;;;17.76;48.84
85166;BME280;75533;52.100;10.228;2024-03-23T03:24:02;99173.34;;;17.76;48.78
85166;BME280;75533;52.100;10.228;2024-03-23T03:26:27;99165.78;;;17.71;48.61
85166;BME280;75533;52.100;10.228;2024-03-23T03:28:53;99168.53;;;17.71;48.96
85166;BME280;75533;52.100;10.228;2024-03-23T03:31:18;99163.00;;;17.71;48.64
85166;BME280;75533;52.100;10.228;2024-03-23T03:33:44;99161.09;;;17.72;48.58
85166;BME280;75533;52.100;10.228;2024-03-23T03:36:09;99152.81;;;17.72;48.68
85166;BME280;75533;52.100;10.228;2024-03-23T03:38:35;99154.94;;;17.70;48.82
85166;BME280;75533;52.100;10.228;2024-03-23T03:41:01;99159.41;;;17.71;49.00
85166;BME280;75533;52.100;10.228;2024-03-23T03:43:27;99167.69;;;17.71;48.60
85166;BME280;75533;52.100;10.228;2024-03-23T03:45:53;99157.94;;;17.68;48.74
85166;BME280;75533;52.100;10.228;2024-03-23T03:48:19;99156.03;;;17.69;48.85
85166;BME280;75533;52.100;10.228;2024-03-23T03:50:44;99152.44;;;17.68;48.67
85166;BME280;75533;52.100;10.228;2024-03-23T03:53:10;99149.44;;;17.70;48.67
85166;BME280;75533;52.100;10.228;2024-03-23T03:55:36;99144.16;;;17.68;48.91
85166;BME280;75533;52.100;10.228;2024-03-23T03:58:01;99142.22;;;17.69;48.71
85166;BME280;75533;52.100;10.228;2024-03-23T04:00:26;99148.59;;;17.69;48.54
85166;BME280;75533;52.100;10.228;2024-03-23T04:02:52;99137.56;;;17.69;48.57
85166;BME280;75533;52.100;10.228;2024-03-23T04:05:17;99124.88;;;17.62;48.91
85166;BME280;75533;52.100;10.228;2024-03-23T04:07:42;99128.66;;;17.67;48.43
85166;BME280;75533;52.100;10.228;2024-03-23T04:10:08;99126.34;;;17.64;48.53
85166;BME280;75533;52.100;10.228;2024-03-23T04:12:34;99123.97;;;17.68;48.66
85166;BME280;75533;52.100;10.228;2024-03-23T04:14:59;99117.81;;;17.66;48.68
85166;BME280;75533;52.100;10.228;2024-03-23T04:17:25;99119.97;;;17.64;48.81
85166;BME280;75533;52.100;10.228;2024-03-23T04:19:51;99113.59;;;17.63;48.64
85166;BME280;75533;52.100;10.228;2024-03-23T04:22:17;99121.88;;;17.63;49.01
85166;BME280;75533;52.100;10.228;2024-03-23T04:24:43;99129.56;;;17.61;48.80
85166;BME280;75533;52.100;10.228;2024-03-23T04:27:08;99122.72;;;17.64;48.71
85166;BME280;75533;52.100;10.228;2024-03-23T04:29:33;99128.47;;;17.62;48.95
85166;BME280;75533;52.100;10.228;2024-03-23T04:31:59;99127.63;;;17.62;48.69
85166;BME280;75533;52.100;10.228;2024-03-23T04:34:24;99119.81;;;17.59;48.87
85166;BME280;75533;52.100;10.228;2024-03-23T04:36:50;99119.59;;;17.60;48.89
85166;BME280;75533;52.100;10.228;2024-03-23T04:39:15;99123.19;;;17.61;49.20
85166;BME280;75533;52.100;10.228;2024-03-23T04:41:40;99118.34;;;17.56;49.01
85166;BME280;75533;52.100;10.228;2024-03-23T04:44:06;99119.22;;;17.57;48.93
85166;BME280;75533;52.100;10.228;2024-03-23T04:46:31;99115.38;;;17.58;49.00
85166;BME280;75533;52.100;10.228;2024-03-23T04:48:56;99111.78;;;17.57;49.05
85166;BME280;75533;52.100;10.228;2024-03-23T04:51:23;99115.56;;;17.56;49.07
85166;BME280;75533;52.100;10.228;2024-03-23T04:53:48;99102.66;;;17.57;48.98
85166;BME280;75533;52.100;10.228;2024-03-23T04:56:17;99107.94;;;17.58;48.83
85166;BME280;75533;52.100;10.228;2024-03-23T04:58:43;99102.84;;;17.55;49.05
85166;BME280;75533;52.100;10.228;2024-03-23T05:01:10;99089.06;;;17.55;48.83
85166;BME280;75533;52.100;10.228;2024-03-23T05:03:35;99087.13;;;17.56;49.23
85166;BME280;75533;52.100;10.228;2024-03-23T05:06:01;99089.91;;;17.56;48.81
85166;BME280;75533;52.100;10.228;2024-03-23T05:08:26;99098.41;;;17.54;48.90
85166;BME280;75533;52.100;10.228;2024-03-23T05:10:51;99087.59;;;17.53;48.76
85166;BME280;75533;52.100;10.228;2024-03-23T05:13:16;99087.59;;;17.53;48.92
85166;BME280;75533;52.100;10.228;2024-03-23T05:15:42;99085.44;;;17.55;49.00
85166;BME280;75533;52.100;10.228;2024-03-23T05:18:07;99071.06;;;17.53;49.25
85166;BME280;75533;52.100;10.228;2024-03-23T05:20:32;99076.56;;;17.53;49.01
85166;BME280;75533;52.100;10.228;2024-03-23T05:22:58;99077.88;;;17.50;49.44
85166;BME280;75533;52.100;10.228;2024-03-23T05:25:23;99072.13;;;17.52;49.19
85166;BME280;75533;52.100;10.228;2024-03-23T05:27:48;99074.03;;;17.51;49.38
85166;BME280;75533;52.100;10.228;2024-03-23T05:30:15;99079.31;;;17.53;49.46
85166;BME280;75533;52.100;10.228;2024-03-23T05:32:40;99070.66;;;17.49;49.46
85166;BME280;75533;52.100;10.228;2024-03-23T05:35:07;99060.94;;;17.47;49.84
85166;BME280;75533;52.100;10.228;2024-03-23T05:37:33;99069.81;;;17.49;49.50
85166;BME280;75533;52.100;10.228;2024-03-23T05:39:59;99079.78;;;17.50;49.70
85166;BME280;75533;52.100;10.228;2024-03-23T05:42:25;99076.19;;;17.49;49.64
85166;BME280;75533;52.100;10.228;2024-03-23T05:44:50;99081.72;;;17.49;49.50
85166;BME280;75533;52.100;10.228;2024-03-23T05:47:15;99075.34;;;17.49;49.68
85166;BME280;75533;52.100;10.228;2024-03-23T05:49:42;99080.88;;;17.49;49.72
85166;BME280;75533;52.100;10.228;2024-03-23T05:52:08;99073.66;;;17.48;49.21
85166;BME280;75533;52.100;10.228;2024-03-23T05:54:33;99067.31;;;17.47;49.94
85166;BME280;75533;52.100;10.228;2024-03-23T05:56:59;99063.94;;;17.45;49.70
85166;BME280;75533;52.100;10.228;2024-03-23T05:59:24;99070.28;;;17.46;49.76
85166;BME280;75533;52.100;10.228;2024-03-23T06:01:50;99065.25;;;17.42;49.77
85166;BME280;75533;52.100;10.228;2024-03-23T06:04:15;99068.59;;;17.45;49.39
85166;BME280;75533;52.100;10.228;2024-03-23T06:06:41;99069.22;;;17.47;49.18
85166;BME280;75533;52.100;10.228;2024-03-23T06:09:06;99070.28;;;17.46;49.50
85166;BME280;75533;52.100;10.228;2024-03-23T06:11:31;99069.44;;;17.45;49.38
85166;BME280;75533;52.100;10.228;2024-03-23T06:13:57;99071.38;;;17.45;49.25
85166;BME280;75533;52.100;10.228;2024-03-23T06:16:22;99067.78;;;17.44;49.18
85166;BME280;75533;52.100;10.228;2024-03-23T06:18:52;99073.53;;;17.42;49.12
85166;BME280;75533;52.100;10.228;2024-03-23T06:21:17;99073.28;;;17.44;49.59
85166;BME280;75533;52.100;10.228;2024-03-23T06:23:43;99071.59;;;17.43;49.31
85166;BME280;75533;52.100;10.228;2024-03-23T06:26:13;99072.44;;;17.44;49.31
85166;BME280;75533;52.100;10.228;2024-03-23T06:28:38;99071.84;;;17.41;49.44
85166;BME280;75533;52.100;10.228;2024-03-23T06:31:09;99073.97;;;17.39;49.12
85166;BME280;75533;52.100;10.228;2024-03-23T06:33:34;99086.69;;;17.40;49.10
85166;BME280;75533;52.100;10.228;2024-03-23T06:36:00;99093.28;;;17.39;49.22
85166;BME280;75533;52.100;10.228;2024-03-23T06:38:25;99087.78;;;17.39;49.02
85166;BME280;75533;52.100;10.228;2024-03-23T06:40:50;99095.81;;;17.41;49.25
85166;BME280;75533;52.100;10.228;2024-03-23T06:43:18;99088.63;;;17.40;49.20
85166;BME280;75533;52.100;10.228;2024-03-23T06:45:43;99091.63;;;17.38;49.12
85166;BME280;75533;52.100;10.228;2024-03-23T06:48:09;99091.63;;;17.38;49.25
85166;BME280;75533;52.100;10.228;2024-03-23T06:50:34;99103.25;;;17.40;49.48
85166;BME280;75533;52.100;10.228;2024-03-23T06:52:59;99099.03;;;17.38;49.39
85166;BME280;75533;52.100;10.228;2024-03-23T06:55:27;99096.06;;;17.39;49.26
85166;BME280;75533;52.100;10.228;2024-03-23T06:57:53;99097.75;;;17.40;49.27
85166;BME280;75533;52.100;10.228;2024-03-23T07:00:18;99103.50;;;17.39;49.01
85166;BME280;75533;52.100;10.228;2024-03-23T07:02:44;99092.44;;;17.39;48.95
85166;BME280;75533;52.100;10.228;2024-03-23T07:05:10;99097.75;;;17.40;49.13
85166;BME280;75533;52.100;10.228;2024-03-23T07:07:36;99102.19;;;17.41;48.70
85166;BME280;75533;52.100;10.228;2024-03-23T07:10:01;99099.19;;;17.43;49.10
85166;BME280;75533;52.100;10.228;2024-03-23T07:12:28;99091.75;;;17.44;48.92
85166;BME280;75533;52.100;10.228;2024-03-23T07:14:53;99091.75;;;17.44;49.22
85166;BME280;75533;52.100;10.228;2024-03-23T07:17:18;99081.34;;;17.46;49.12
85166;BME280;75533;52.100;10.228;2024-03-23T07:19:44;99090.22;;;17.48;48.94
85166;BME280;75533;52.100;10.228;2024-03-23T07:22:09;99094.06;;;17.47;49.02
85166;BME280;75533;52.100;10.228;2024-03-23T07:24:35;99092.97;;;17.48;48.99
85166;BME280;75533;52.100;10.228;2024-03-23T07:27:01;99095.28;;;17.51;49.33
85166;BME280;75533;52.100;10.228;2024-03-23T07:29:27;99094.19;;;17.52;49.40
85166;BME280;75533;52.100;10.228;2024-03-23T07:31:52;99106.69;;;17.54;49.29
85166;BME280;75533;52.100;10.228;2024-03-23T07:34:18;99120.25;;;17.56;49.54
85166;BME280;75533;52.100;10.228;2024-03-23T07:36:43;99107.09;;;17.58;49.53
85166;BME280;75533;52.100;10.228;2024-03-23T07:39:09;99110.47;;;17.60;49.31
85166;BME280;75533;52.100;10.228;2024-03-23T07:41:34;99097.28;;;17.62;49.39
85166;BME280;75533;52.100;10.228;2024-03-23T07:44:00;99083.25;;;17.63;49.12
85166;BME280;75533;52.100;10.228;2024-03-23T07:46:26;99080.25;;;17.65;49.51
85166;BME280;75533;52.100;10.228;2024-03-23T07:48:51;99088.72;;;17.70;49.20
85166;BME280;75533;52.100;10.228;2024-03-23T07:51:21;99087.03;;;17.69;49.21
85166;BME280;75533;52.100;10.228;2024-03-23T07:53:48;99096.53;;;17.73;49.51
85166;BME280;75533;52.100;10.228;2024-03-23T07:56:17;99103.72;;;17.74;49.17
85166;BME280;75533;52.100;10.228;2024-03-23T07:58:47;99116.63;;;17.80;49.34
85166;BME280;75533;52.100;10.228;2024-03-23T08:01:14;99113.63;;;17.82;49.16
85166;BME280;75533;52.100;10.228;2024-03-23T08:03:42;99115.31;;;17.83;49.05
85166;BME280;75533;52.100;10.228;2024-03-23T08:06:12;99111.47;;;17.84;48.92
85166;BME280;75533;52.100;10.228;2024-03-23T08:08:39;99108.94;;;17.82;49.02
85166;BME280;75533;52.100;10.228;2024-03-23T08:11:05;99107.28;;;17.81;49.06
85166;BME280;75533;52.100;10.228;2024-03-23T08:13:31;99110.78;;;17.88;49.31
85166;BME280;75533;52.100;10.228;2024-03-23T08:16:00;99115.22;;;17.89;49.27
85166;BME280;75533;52.100;10.228;2024-03-23T08:18:26;99110.78;;;17.88;49.11
85166;BME280;75533;52.100;10.228;2024-03-23T08:21:05;99111.38;;;17.90;49.32
85166;BME280;75533;52.100;10.228;2024-03-23T08:23:32;99100.34;;;17.90;49.00
85166;BME280;75533;52.100;10.228;2024-03-23T08:26:09;99083.31;;;17.93;49.21
85166;BME280;75533;52.100;10.228;2024-03-23T08:28:35;99088.81;;;17.93;49.21
85166;BME280;75533;52.100;10.228;2024-03-23T08:31:03;99100.25;;;17.97;49.08
85166;BME280;75533;52.100;10.228;2024-03-23T08:33:30;99094.94;;;17.95;49.13
85166;BME280;75533;52.100;10.228;2024-03-23T08:35:59;99096.88;;;17.95;48.96
85166;BME280;75533;52.100;10.228;2024-03-23T08:38:26;99098.09;;;17.99;48.87
85166;BME280;75533;52.100;10.228;2024-03-23T08:43:28;99115.06;;;18.02;48.50
85166;BME280;75533;52.100;10.228;2024-03-23T08:45:53;99105.94;;;18.02;48.69
85166;BME280;75533;52.100;10.228;2024-03-23T08:48:22;99095.56;;;17.97;49.08
85166;BME280;75533;52.100;10.228;2024-03-23T08:50:47;99109.06;;;18.06;48.74
85166;BME280;75533;52.100;10.228;2024-03-23T08:53:22;99113.50;;;18.07;48.67
85166;BME280;75533;52.100;10.228;2024-03-23T08:55:53;99104.38;;;18.06;48.49
85166;BME280;75533;52.100;10.228;2024-03-23T08:58:19;99102.47;;;18.07;48.63
85166;BME280;75533;52.100;10.228;2024-03-23T09:00:45;99101.38;;;18.08;48.41
85166;BME280;75533;52.100;10.228;2024-03-23T09:03:10;99118.56;;;18.10;48.57
85166;BME280;75533;52.100;10.228;2024-03-23T09:05:39;99110.03;;;18.11;48.63
85166;BME280;75533;52.100;10.228;2024-03-23T09:08:05;99110.88;;;18.12;48.70
85166;BME280;75533;52.100;10.228;2024-03-23T09:10:30;99104.28;;;18.13;48.36
85166;BME280;75533;52.100;10.228;2024-03-23T09:12:55;99113.66;;;18.12;48.49
85166;BME280;75533;52.100;10.228;2024-03-23T09:15:21;99119.31;;;18.17;48.60
85166;BME280;75533;52.100;10.228;2024-03-23T09:17:46;99119.31;;;18.17;48.62
85166;BME280;75533;52.100;10.228;2024-03-23T09:20:11;99121.59;;;18.20;48.24
85166;BME280;75533;52.100;10.228;2024-03-23T09:22:36;99102.25;;;18.20;48.48
85166;BME280;75533;52.100;10.228;2024-03-23T09:25:02;99100.34;;;18.20;48.12
85166;BME280;75533;52.100;10.228;2024-03-23T09:27:27;99105.66;;;18.22;48.28
85166;BME280;75533;52.100;10.228;2024-03-23T09:29:53;99110.09;;;18.23;48.20
85166;BME280;75533;52.100;10.228;2024-03-23T09:32:18;99111.31;;;18.27;48.46
85166;BME280;75533;52.100;10.228;2024-03-23T09:34:43;99117.69;;;18.27;48.32
85166;BME280;75533;52.100;10.228;2024-03-23T09:37:08;99112.75;;;18.29;47.97
85166;BME280;75533;52.100;10.228;2024-03-23T09:39:34;99111.56;;;18.25;48.19
85166;BME280;75533;52.100;10.228;2024-03-23T09:41:59;99122.63;;;18.37;48.11
85166;BME280;75533;52.100;10.228;2024-03-23T09:44:25;99117.09;;;18.37;48.02
85166;BME280;75533;52.100;10.228;2024-03-23T09:46:51;99108.34;;;18.40;47.99
85166;BME280;75533;52.100;10.228;2024-03-23T09:49:17;99114.25;;;18.44;47.77
85166;BME280;75533;52.100;10.228;2024-03-23T09:51:42;99107.00;;;18.43;47.88
85166;BME280;75533;52.100;10.228;2024-03-23T09:54:08;99102.56;;;18.42;47.98
85166;BME280;75533;52.100;10.228;2024-03-23T09:56:33;99102.56;;;18.42;47.90
85166;BME280;75533;52.100;10.228;2024-03-23T09:59:02;99110.41;;;18.45;47.78
85166;BME280;75533;52.100;10.228;2024-03-23T10:01:29;99108.50;;;18.45;47.90
85166;BME280;75533;52.100;10.228;2024-03-23T10:03:55;99108.09;;;18.42;47.71
85166;BME280;75533;52.100;10.228;2024-03-23T10:06:21;99101.28;;;18.44;47.74
85166;BME280;75533;52.100;10.228;2024-03-23T10:08:47;99106.41;;;18.41;48.13
85166;BME280;75533;52.100;10.228;2024-03-23T10:11:14;99095.59;;;18.39;47.96
85166;BME280;75533;52.100;10.228;2024-03-23T10:13:42;99103.03;;;18.39;48.24
85166;BME280;75533;52.100;10.228;2024-03-23T10:16:07;99103.41;;;18.42;48.01
85166;BME280;75533;52.100;10.228;2024-03-23T10:18:37;99091.06;;;18.45;48.13
85166;BME280;75533;52.100;10.228;2024-03-23T10:23:34;99100.69;;;18.54;48.05
85166;BME280;75533;52.100;10.228;2024-03-23T10:26:21;99097.22;;;18.58;48.15
85166;BME280;75533;52.100;10.228;2024-03-23T10:28:54;99093.38;;;18.59;47.98
85166;BME280;75533;52.100;10.228;2024-03-23T10:31:23;99097.22;;;18.58;48.00
85166;BME280;75533;52.100;10.228;2024-03-23T10:33:49;99102.75;;;18.58;48.15
85166;BME280;75533;52.100;10.228;2024-03-23T10:36:15;99083.63;;;18.57;48.44
85166;BME280;75533;52.100;10.228;2024-03-23T10:38:42;99082.06;;;18.61;47.97
85166;BME280;75533;52.100;10.228;2024-03-23T10:41:09;99078.00;;;18.63;48.23
85166;BME280;75533;52.100;10.228;2024-03-23T10:43:36;99079.25;;;18.68;48.26
85166;BME280;75533;52.100;10.228;2024-03-23T10:46:01;99081.41;;;18.66;48.15
85166;BME280;75533;52.100;10.228;2024-03-23T10:48:27;99075.00;;;18.65;48.14
85166;BME280;75533;52.100;10.228;2024-03-23T10:50:53;99093.06;;;18.68;48.10
85166;BME280;75533;52.100;10.228;2024-03-23T10:53:21;99097.53;;;18.69;48.26
85166;BME280;75533;52.100;10.228;2024-03-23T10:55:48;99085.13;;;18.71;48.36
85166;BME280;75533;52.100;10.228;2024-03-23T10:58:14;99091.50;;;18.72;48.09
85166;BME280;75533;52.100;10.228;2024-03-23T11:00:40;99090.66;;;18.71;48.08
85166;BME280;75533;52.100;10.228;2024-03-23T11:05:57;99089.34;;;18.74;48.09
85166;BME280;75533;52.100;10.228;2024-03-23T11:08:35;99089.09;;;18.75;48.05
85166;BME280;75533;52.100;10.228;2024-03-23T11:11:17;99082.00;;;18.79;47.93
85166;BME280;75533;52.100;10.228;2024-03-23T11:13:43;99072.88;;;18.79;48.00
85166;BME280;75533;52.100;10.228;2024-03-23T11:16:34;99071.91;;;18.85;47.87
85166;BME280;75533;52.100;10.228;2024-03-23T11:19:38;99068.69;;;18.88;47.92
85166;BME280;75533;52.100;10.228;2024-03-23T11:22:05;99066.53;;;18.90;48.13
85166;BME280;75533;52.100;10.228;2024-03-23T11:24:31;99073.50;;;18.92;47.98
85166;BME280;75533;52.100;10.228;2024-03-23T11:26:57;99063.88;;;18.95;47.74
85166;BME280;75533;52.100;10.228;2024-03-23T11:29:29;99055.09;;;18.98;47.81
85166;BME280;75533;52.100;10.228;2024-03-23T11:31:55;99060.63;;;18.98;47.72
85166;BME280;75533;52.100;10.228;2024-03-23T11:34:21;99068.44;;;19.01;47.74
85166;BME280;75533;52.100;10.228;2024-03-23T11:36:48;99066.75;;;19.00;47.77
85166;BME280;75533;52.100;10.228;2024-03-23T11:39:20;99051.00;;;19.01;47.72
85166;BME280;75533;52.100;10.228;2024-03-23T11:41:50;99059.53;;;18.99;47.80
85166;BME280;75533;52.100;10.228;2024-03-23T11:44:21;99049.06;;;19.01;47.72
85166;BME280;75533;52.100;10.228;2024-03-23T11:46:47;99047.38;;;19.00;47.61
85166;BME280;75533;52.100;10.228;2024-03-23T11:49:29;99056.53;;;19.01;47.77
85166;BME280;75533;52.100;10.228;2024-03-23T11:51:56;99055.69;;;19.00;47.70
85166;BME280;75533;52.100;10.228;2024-03-23T11:54:25;99059.06;;;19.02;47.62
85166;BME280;75533;52.100;10.228;2024-03-23T11:57:00;99066.88;;;19.05;47.84
85166;BME280;75533;52.100;10.228;2024-03-23T11:59:38;99099.69;;;19.02;47.86
85166;BME280;75533;52.100;10.228;2024-03-23T12:02:09;99098.63;;;19.03;47.85
85166;BME280;75533;52.100;10.228;2024-03-23T12:04:36;99088.41;;;19.03;48.00
85166;BME280;75533;52.100;10.228;2024-03-23T12:09:36;99072.06;;;19.13;48.03
85166;BME280;75533;52.100;10.228;2024-03-23T12:12:11;99074.34;;;19.16;48.07
85166;BME280;75533;52.100;10.228;2024-03-23T12:14:40;99076.72;;;19.24;47.92
85166;BME280;75533;52.100;10.228;2024-03-23T12:17:13;99060.22;;;19.30;48.10
85166;BME280;75533;52.100;10.228;2024-03-23T12:19:40;99067.69;;;19.41;48.05
85166;BME280;75533;52.100;10.228;2024-03-23T12:22:07;99067.19;;;19.44;48.14
85166;BME280;75533;52.100;10.228;2024-03-23T12:24:33;99056.63;;;19.41;48.03
85166;BME280;75533;52.100;10.228;2024-03-23T12:27:04;99054.44;;;19.43;48.26
85166;BME280;75533;52.100;10.228;2024-03-23T12:29:34;99051.78;;;19.48;48.20
85166;BME280;75533;52.100;10.228;2024-03-23T12:32:01;99057.31;;;19.48;47.82
85166;BME280;75533;52.100;10.228;2024-03-23T12:34:27;99064.06;;;19.52;48.05
85166;BME280;75533;52.100;10.228;2024-03-23T12:36:52;99059.38;;;19.52;47.93
85166;BME280;75533;52.100;10.228;2024-03-23T12:39:17;99056.59;;;19.52;47.87
85166;BME280;75533;52.100;10.228;2024-03-23T12:41:43;99068.06;;;19.56;47.99
85166;BME280;75533;52.100;10.228;2024-03-23T12:44:09;99055.53;;;19.53;48.09
85166;BME280;75533;52.100;10.228;2024-03-23T12:46:37;99085.13;;;19.53;48.04
85166;BME280;75533;52.100;10.228;2024-03-23T12:49:02;99088.34;;;19.50;48.02
85166;BME280;75533;52.100;10.228;2024-03-23T12:51:28;99100.28;;;19.50;48.08
85166;BME280;75533;52.100;10.228;2024-03-23T12:53:53;99102.19;;;19.50;47.96
85166;BME280;75533;52.100;10.228;2024-03-23T12:56:19;99111.59;;;19.49;48.05
85166;BME280;75533;52.100;10.228;2024-03-23T12:58:44;99111.84;;;19.47;48.22
85166;BME280;75533;52.100;10.228;2024-03-23T13:01:09;99116.53;;;19.47;48.25
85166;BME280;75533;52.100;10.228;2024-03-23T13:03:35;99123.75;;;19.48;48.56
85166;BME280;75533;52.100;10.228;2024-03-23T13:06:00;99127.59;;;19.47;48.62
85166;BME280;75533;52.100;10.228;2024-03-23T13:08:25;99130.13;;;19.48;48.48
85166;BME280;75533;52.100;10.228;2024-03-23T13:10:53;99137.59;;;19.48;48.38
85166;BME280;75533;52.100;10.228;2024-03-23T13:13:20;99150.22;;;19.44;48.88
85166;BME280;75533;52.100;10.228;2024-03-23T13:15:52;99168.53;;;19.45;48.49
85166;BME280;75533;52.100;10.228;2024-03-23T13:18:17;99189.00;;;19.44;48.56
85166;BME280;75533;52.100;10.228;2024-03-23T13:20:42;99194.03;;;19.47;48.40
85166;BME280;75533;52.100;10.228;2024-03-23T13:23:08;99191.50;;;19.45;48.55
85166;BME280;75533;52.100;10.228;2024-03-23T13:25:34;99196.22;;;19.45;48.49
85166;BME280;75533;52.100;10.228;2024-03-23T13:27:59;99183.44;;;19.44;48.55
85166;BME280;75533;52.100;10.228;2024-03-23T13:30:24;99145.28;;;19.46;48.86
85166;BME280;75533;52.100;10.228;2024-03-23T13:32:50;99127.00;;;19.45;48.50
85166;BME280;75533;52.100;10.228;2024-03-23T13:35:15;99132.28;;;19.46;48.42
85166;BME280;75533;52.100;10.228;2024-03-23T13:37:41;99123.41;;;19.44;48.71
85166;BME280;75533;52.100;10.228;2024-03-23T13:40:07;99122.56;;;19.44;48.84
85166;BME280;75533;52.100;10.228;2024-03-23T13:42:32;99125.06;;;19.45;49.03
85166;BME280;75533;52.100;10.228;2024-03-23T13:44:58;99117.13;;;19.49;48.71
85166;BME280;75533;52.100;10.228;2024-03-23T13:47:23;99122.94;;;19.59;48.57
85166;BME280;75533;52.100;10.228;2024-03-23T13:49:48;99123.03;;;19.64;48.63